createdAt,value
2023-04-20T00:01:16.145Z,12.456407403652065
2023-04-20T00:04:16.653Z,12.416585278451475
2023-04-20T00:07:16.898Z,12.392178178097765
2023-04-20T00:11:15.812Z,12.3279489980182
2023-04-20T00:14:16.618Z,12.302899630113098
2023-04-20T00:17:16.251Z,12.248304877874853
2023-04-20T00:21:16.041Z,12.189214124242516
2023-04-20T00:24:16.258Z,12.182148928014794
2023-04-20T00:27:16.088Z,12.124985087863115
2023-04-20T00:31:15.880Z,12.096082036328516
2023-04-20T00:34:16.593Z,12.035706802831555
2023-04-20T00:37:16.298Z,12.01065751562137
2023-04-20T00:41:16.558Z,11.9213793431034
2023-04-20T00:44:16.906Z,11.882199741176828
2023-04-20T00:47:16.839Z,11.849443037799574
2023-04-20T00:51:17.061Z,11.787141105194404
2023-04-20T00:54:16.848Z,11.719058629830489
2023-04-20T00:57:19.084Z,11.727408364626172
2023-04-20T01:01:17.924Z,11.620788731906577
2023-04-20T01:04:16.985Z,11.58546297761868
2023-04-20T01:07:16.334Z,11.590601268296542
2023-04-20T01:11:16.350Z,11.497469794928111
2023-04-20T01:14:16.690Z,11.473705227379924
2023-04-20T01:17:17.611Z,11.434525818798283
2023-04-20T01:21:19.205Z,11.365159038547427
2023-04-20T01:24:16.657Z,11.334971660002429
2023-04-20T01:27:17.677Z,11.302857438535375
2023-04-20T01:31:15.688Z,11.254043843678755
2023-04-20T01:34:17.789Z,11.194953737679407
2023-04-20T01:37:16.248Z,11.226425637170905
2023-04-20T01:41:16.319Z,11.148067050523604
2023-04-20T01:44:16.734Z,11.117879744219772
2023-04-20T01:47:17.258Z,11.092188427618476
2023-04-20T01:51:16.167Z,11.040805816243756
2023-04-20T01:54:16.619Z,11.037594403999174
2023-04-20T01:57:16.681Z,10.993919208759689
2023-04-20T02:01:16.150Z,10.914918541375755
2023-04-20T02:04:17.460Z,10.896934659226918
2023-04-20T02:07:16.900Z,10.899503785029902
2023-04-20T02:11:15.885Z,10.855186375126141
2023-04-20T02:14:16.393Z,10.814080391091192
2023-04-20T02:17:16.200Z,10.776185828559482
2023-04-20T02:21:16.287Z,10.772974425682696
2023-04-20T02:24:17.797Z,10.733153039455647
2023-04-20T02:27:16.589Z,10.738291281857528
2023-04-20T02:31:16.392Z,10.684982031092023
2023-04-20T02:34:16.548Z,10.699754470937478
2023-04-20T02:37:16.549Z,10.65222576001579
2023-04-20T02:41:15.859Z,10.621396339219427
2023-04-20T02:44:16.374Z,10.650941200606757
2023-04-20T02:47:16.464Z,10.648372081843263
2023-04-20T02:51:16.576Z,10.594420604617335
2023-04-20T02:54:16.861Z,10.620111780246953
2023-04-20T02:57:17.039Z,10.620111780246953
2023-04-20T03:01:16.696Z,10.568087157148057
2023-04-20T03:04:16.358Z,10.568087157148057
2023-04-20T03:07:16.701Z,10.572583111052882
2023-04-20T03:11:16.154Z,10.550745622745307
2023-04-20T03:14:17.019Z,10.571298552771623
2023-04-20T03:17:17.023Z,10.5950628839194
2023-04-20T03:21:16.515Z,10.55331473874394
2023-04-20T03:24:17.238Z,10.519273957666973
2023-04-20T03:27:16.915Z,10.511566612781554
2023-04-20T03:31:16.617Z,10.528265860860937
2023-04-20T03:34:17.078Z,10.487802303507124
2023-04-20T03:41:17.074Z,10.48908686060604
2023-04-20T03:44:16.929Z,10.494225089183601
2023-04-20T03:47:16.920Z,10.512208891496993
2023-04-20T03:51:16.142Z,10.48266407529336
2023-04-20T03:54:16.654Z,10.49165597485844
2023-04-20T03:57:16.469Z,10.494225089183601
2023-04-20T04:01:15.772Z,10.468533949206176
2023-04-20T04:04:16.119Z,10.415224856965597
2023-04-20T04:07:16.065Z,10.390176017213161
2023-04-20T04:11:16.341Z,10.353566186939952
2023-04-20T04:14:16.253Z,10.345858856133509
2023-04-20T04:17:16.660Z,10.315671816780014
2023-04-20T04:21:15.713Z,10.321452312899874
2023-04-20T04:24:17.202Z,10.280346570717757
2023-04-20T04:27:17.063Z,10.263005091321247
2023-04-20T04:31:17.702Z,10.251444106898635
2023-04-20T04:34:18.166Z,10.306037657398793
2023-04-20T04:37:16.052Z,10.236029463293743
2023-04-20T04:41:17.773Z,10.241809954338624
2023-04-20T04:44:16.835Z,10.196208312771342
2023-04-20T04:47:17.930Z,10.194281483350732
2023-04-20T04:51:16.063Z,10.172444086110863
2023-04-20T04:54:16.255Z,10.191712377520252
2023-04-20T04:57:16.253Z,10.163452218187103
2023-04-20T05:01:16.061Z,10.112712408751031
2023-04-20T05:04:16.849Z,10.215476609228427
2023-04-20T05:07:17.317Z,10.263005091321247
2023-04-20T05:11:15.952Z,10.29319211314878
2023-04-20T05:14:16.324Z,10.297688053429374
2023-04-20T05:17:16.276Z,10.322094590269263
2023-04-20T05:21:15.932Z,10.372834516820967
2023-04-20T05:24:17.622Z,10.400452463454348
2023-04-20T05:27:16.316Z,10.41843624717767
2023-04-20T05:31:16.036Z,10.412655744877792
2023-04-20T05:34:16.620Z,10.415867134998916
2023-04-20T05:37:16.532Z,10.428712696620277
2023-04-20T05:41:15.996Z,10.416509413036783
2023-04-20T05:44:16.462Z,10.432566365461389
2023-04-20T05:47:16.393Z,10.434493199943336
2023-04-20T05:51:15.906Z,10.422289915582223
2023-04-20T05:54:16.414Z,10.445411929447436
2023-04-20T05:57:16.370Z,10.427428140376287
2023-04-20T06:01:15.905Z,10.43577775628737
2023-04-20T06:04:16.765Z,10.478810404324031
2023-04-20T06:07:16.792Z,10.507712940584407
2023-04-20T06:11:16.294Z,10.539184601651868
2023-04-20T06:14:17.287Z,10.571940831909979
2023-04-20T06:17:16.496Z,10.595705163226011
2023-04-20T06:21:17.449Z,10.625892295766334
2023-04-20T06:24:16.230Z,10.69012027076542
2023-04-20T06:27:16.207Z,10.740218122833266
2023-04-20T06:31:16.562Z,10.79416968677042
2023-04-20T06:34:16.529Z,10.818576357187794
2023-04-20T06:37:16.491Z,10.860324624440182
2023-04-20T06:41:16.521Z,10.9039997553602
2023-04-20T06:44:16.167Z,10.965658799515586
2023-04-20T06:47:16.242Z,10.952813161860467
2023-04-20T06:51:15.859Z,11.000984312446326
2023-04-20T06:54:16.349Z,11.05300918380999
2023-04-20T06:57:16.324Z,11.124944857560696
2023-04-20T07:01:16.078Z,11.149993900203208
2023-04-20T07:04:16.686Z,11.188530902389994
2023-04-20T07:07:16.690Z,11.18339263448588
2023-04-20T07:11:15.923Z,11.270743228437004
2023-04-20T07:14:16.193Z,11.35552476770763
2023-04-20T07:17:16.227Z,11.383785298405655
2023-04-20T07:21:16.179Z,11.460217232351715
2023-04-20T07:24:16.075Z,11.541145232602503
2023-04-20T07:27:16.160Z,11.622715591627003
2023-04-20T07:31:15.852Z,11.71392033187667
2023-04-20T07:34:16.057Z,11.807694315345088
2023-04-20T07:37:16.215Z,11.874492280494541
2023-04-20T07:41:16.021Z,11.984323657037748
2023-04-20T07:44:16.588Z,12.03956053993934
2023-04-20T07:47:16.618Z,12.116635316473912
2023-04-20T07:51:15.990Z,12.189214124242516
2023-04-20T07:54:16.112Z,12.270785065993914
2023-04-20T07:57:16.686Z,12.331802747540587
2023-04-20T08:01:16.248Z,12.409520064515892
2023-04-20T08:04:16.814Z,12.507148523992873
2023-04-20T08:07:16.608Z,12.54568610270835
2023-04-20T08:11:16.055Z,12.652306822456012
2023-04-20T08:14:16.731Z,12.694055933605796
2023-04-20T08:17:16.419Z,12.782050276952578
2023-04-20T08:21:16.216Z,12.917574578552102
2023-04-20T08:24:16.608Z,12.975381214289609
2023-04-20T08:27:16.082Z,13.038326259539554
2023-04-20T08:31:15.828Z,13.090352299294683
2023-04-20T08:34:16.156Z,13.182200812682368
2023-04-20T08:37:16.015Z,13.250284386115618
2023-04-20T08:41:16.877Z,13.345986854030343
2023-04-20T08:44:17.130Z,13.396728471932965
2023-04-20T08:47:16.987Z,13.45838921036784
2023-04-20T08:51:17.097Z,13.54381509432569
2023-04-20T08:54:17.470Z,13.618964246720225
2023-04-20T08:57:16.757Z,13.68062513620398
2023-04-20T09:01:34.685Z,13.748709083694212
2023-04-20T09:04:18.844Z,13.83156603211537
2023-04-20T09:07:17.732Z,13.884877131960911
2023-04-20T09:11:25.050Z,14.000491672999578
2023-04-20T09:14:18.310Z,14.139229316732326
2023-04-20T09:17:29.868Z,14.222728926807122
2023-04-20T09:21:16.214Z,14.263836455382352
2023-04-20T09:24:18.445Z,14.347978486017382
2023-04-20T09:27:18.147Z,14.411566789949665
2023-04-20T09:31:18.389Z,14.604258892213783
2023-04-20T09:34:17.085Z,14.712808956707885
2023-04-20T09:37:16.682Z,14.769332118636521
2023-04-20T09:41:17.697Z,14.932478715354591
2023-04-20T09:44:18.568Z,15.026898336461546
2023-04-20T09:47:17.071Z,15.107829518479502
2023-04-20T09:51:16.659Z,15.211884001443195
2023-04-20T09:54:16.834Z,15.350623497707511
2023-04-20T09:57:17.057Z,15.398796983534703
2023-04-20T10:01:15.859Z,15.497713287952138
2023-04-20T10:04:16.998Z,15.637737851323617
2023-04-20T10:07:23.141Z,15.764273995856001
2023-04-20T10:11:44.444Z,15.861263748962665
2023-04-20T10:14:18.781Z,15.984588617883855
2023-04-20T10:17:28.505Z,16.03019316916116
2023-04-20T10:21:16.432Z,16.09892119819451
2023-04-20T10:24:28.998Z,16.163153048095772
2023-04-20T10:27:17.978Z,16.203619136882573
2023-04-20T10:31:16.918Z,16.255004672464658
2023-04-20T10:34:28.193Z,16.328871430852452
2023-04-20T10:37:16.733Z,16.482386016743202
2023-04-20T10:41:15.854Z,16.556252960258643
2023-04-20T10:44:16.904Z,16.62176977787749
2023-04-20T10:47:16.974Z,16.66352071574738
2023-04-20T10:51:17.342Z,16.749591940602933
2023-04-20T10:54:18.415Z,16.86328316128347
2023-04-20T10:57:16.601Z,16.985967067709954
2023-04-20T11:01:16.104Z,17.12663625358291
2023-04-20T11:04:18.886Z,17.284648475889117
2023-04-20T11:07:16.849Z,17.477346680407937
2023-04-20T11:11:18.429Z,17.637928830145757
2023-04-20T11:14:16.093Z,17.857605671336934
2023-04-20T11:17:16.104Z,18.016261498542825
2023-04-20T11:21:16.537Z,18.21602692251945
2023-04-20T11:24:17.584Z,18.32265430635307
2023-04-20T11:27:20.167Z,18.43377815899739
2023-04-20T11:31:16.493Z,18.52049339866644
2023-04-20T11:34:16.921Z,18.63482917468682
2023-04-20T11:37:16.361Z,18.706128523683674
2023-04-20T11:41:16.389Z,18.848085052028544
2023-04-20T11:44:16.154Z,19.004815594695174
2023-04-20T11:47:15.847Z,19.120436660357882
2023-04-20T11:51:16.002Z,19.34525582092465
2023-04-20T11:54:17.136Z,19.453169215866364
2023-04-20T11:57:16.699Z,19.584849425222
2023-04-20T12:01:17.146Z,19.846283382830734
2023-04-20T12:04:17.353Z,19.972183051292085
2023-04-20T12:07:17.153Z,20.045410489832648
2023-04-20T12:11:16.917Z,20.2316910823356
2023-04-20T12:14:16.518Z,20.36080302774362
2023-04-20T12:17:16.399Z,20.430819035167588
2023-04-20T12:21:16.618Z,20.586267611758377
2023-04-20T12:24:16.736Z,20.669130804792893
2023-04-20T12:27:16.898Z,20.711525956073547
2023-04-20T12:31:16.268Z,20.822010382791724
2023-04-20T12:34:16.936Z,20.949196110355206
2023-04-20T12:37:16.617Z,21.010219628788764
2023-04-20T12:41:16.708Z,21.059680826474597
2023-04-20T12:44:17.791Z,21.08730202652514
2023-04-20T12:47:16.588Z,21.07638201619784
2023-04-20T12:51:15.988Z,21.169523322954774
2023-04-20T12:54:16.562Z,21.223481089227427
2023-04-20T12:57:16.127Z,21.262664725322338
2023-04-20T13:01:15.876Z,21.36736862282414
2023-04-20T13:04:16.540Z,21.403982897702463
2023-04-20T13:07:16.120Z,21.499051610231344
2023-04-20T13:11:17.386Z,21.494555114827016
2023-04-20T13:14:17.103Z,21.605040495004868
2023-04-20T13:17:17.051Z,21.601828708798802
2023-04-20T13:21:16.055Z,21.500336323244937
2023-04-20T13:24:16.963Z,21.508686958276666
2023-04-20T13:27:16.417Z,21.481707986328182
2023-04-20T13:31:17.485Z,21.449590173039176
2023-04-20T13:34:18.264Z,21.389851070560052
2023-04-20T13:37:18.176Z,21.369295689554654
2023-04-20T13:41:15.892Z,21.33525085000765
2023-04-20T13:44:16.337Z,21.39755933963761
2023-04-20T13:47:16.333Z,21.488131550350225
2023-04-20T13:51:16.543Z,21.518964663986118
2023-04-20T13:54:17.119Z,21.563287283193585
2023-04-20T13:57:17.196Z,21.55108250183148
2023-04-20T14:01:17.445Z,21.544016576530066
2023-04-20T14:04:17.910Z,21.596689851105566
2023-04-20T14:07:17.397Z,21.644866653405188
2023-04-20T14:11:16.254Z,21.655144374539667
2023-04-20T14:14:16.916Z,21.625595929415795
2023-04-20T14:17:16.700Z,21.588981565111407
2023-04-20T14:21:15.749Z,21.61917235566216
2023-04-20T14:24:16.487Z,21.592193350862726
2023-04-20T14:27:16.074Z,21.62302649985977
2023-04-20T14:31:16.801Z,21.60439813775456
2023-04-20T14:34:17.441Z,21.68019632468213
2023-04-20T14:37:17.092Z,21.741862692961966
2023-04-20T14:41:17.276Z,21.669918600710027
2023-04-20T14:44:17.298Z,21.662210308494924
2023-04-20T14:47:16.966Z,21.654502016934657
2023-04-20T14:51:16.455Z,21.636516005840623
2023-04-20T14:54:17.186Z,21.68019632468213
2023-04-20T14:57:16.865Z,21.707175355647724
2023-04-20T15:01:15.697Z,21.704605923781582
2023-04-20T15:04:16.361Z,21.719380158005514
2023-04-20T15:07:16.219Z,21.73479675280396
2023-04-20T15:11:16.521Z,21.703963565826417
2023-04-20T15:14:17.261Z,21.66156795083989
2023-04-20T15:17:16.959Z,21.656429089763332
2023-04-20T15:21:16.388Z,21.5780614944073
2023-04-20T15:24:17.310Z,21.602471066030922
2023-04-20T15:27:17.534Z,21.580630922690034
2023-04-20T15:31:17.038Z,21.500978679758553
2023-04-20T15:34:17.647Z,21.504832818935757
2023-04-20T15:37:16.144Z,21.490058619645517
2023-04-20T15:41:16.532Z,21.409121744481762
2023-04-20T15:44:17.150Z,21.355806223300533
2023-04-20T15:47:16.850Z,21.357090934285953
2023-04-20T15:51:15.697Z,21.346813246911914
2023-04-20T15:54:16.282Z,21.405909965210594
2023-04-20T15:57:16.274Z,21.368010978396434
2023-04-20T16:01:16.130Z,21.39177813776805
2023-04-20T16:04:16.883Z,21.468860859648338
2023-04-20T16:07:16.419Z,21.508686958276666
2023-04-20T16:11:16.034Z,21.568426138995072
2023-04-20T16:14:16.826Z,21.56971085299092
2023-04-20T16:17:16.888Z,21.577419137347988
2023-04-20T16:21:16.186Z,21.54337421971177
2023-04-20T16:24:16.816Z,21.51832230734517
2023-04-20T16:27:16.808Z,21.57420735211963
2023-04-20T16:31:15.637Z,21.57998856561253
2023-04-20T16:34:16.142Z,21.562002569288687
2023-04-20T16:37:15.886Z,21.545943647012244
2023-04-20T16:41:16.769Z,21.529884727577972
2023-04-20T16:44:17.269Z,21.535023581487714
2023-04-20T16:47:16.773Z,21.47014557223447
2023-04-20T16:51:15.574Z,21.417472371118855
2023-04-20T16:54:18.787Z,21.408479388618435
2023-04-20T16:57:17.075Z,21.384069869181623
2023-04-20T17:01:16.176Z,21.33268142867346
2023-04-20T17:04:18.543Z,21.293497762342394
2023-04-20T17:07:16.519Z,21.278081242522696
2023-04-20T17:11:18.286Z,21.204852809149543
2023-04-20T17:14:17.856Z,21.109142051122397
2023-04-20T17:17:16.979Z,20.96975139619108
2023-04-20T17:21:16.195Z,20.916436133179012
2023-04-20T17:24:17.968Z,20.786038694206308
2023-04-20T17:27:18.669Z,20.681977818240647
2023-04-20T17:31:16.218Z,20.520747931304868
2023-04-20T17:34:17.823Z,20.42953433729708
2023-04-20T17:37:16.723Z,20.331897352362283
2023-04-20T17:41:16.239Z,20.16424461674478
2023-04-20T17:44:16.672Z,20.041556412646607
2023-04-20T17:47:16.573Z,19.959336138343495
2023-04-20T17:51:15.797Z,19.772413760716972
2023-04-20T17:54:16.583Z,19.721668576894807
2023-04-20T17:57:16.301Z,19.626601726629087
2023-04-20T18:01:16.041Z,19.457665610107597
2023-04-20T18:04:16.613Z,19.361314353709986
2023-04-20T18:07:17.170Z,19.274598310434158
2023-04-20T18:11:16.706Z,19.14484557083342
2023-04-20T18:14:16.951Z,19.03693254259997
2023-04-20T18:17:16.610Z,18.94828979399499
2023-04-20T18:21:16.423Z,18.801194409503022
2023-04-20T18:24:17.036Z,18.72475629076107
2023-04-20T18:27:17.192Z,18.38688773058966
2023-04-20T18:31:16.631Z,18.178771601081827
2023-04-20T18:34:16.984Z,18.220523255451646
2023-04-20T18:37:16.912Z,18.189048929605633
2023-04-20T18:41:17.111Z,18.088202693799484
2023-04-20T18:44:17.068Z,18.052874421143496
2023-04-20T18:47:18.974Z,17.977721595977435
2023-04-20T18:51:16.478Z,17.88008724941401
2023-04-20T18:54:17.362Z,17.807503888805876
2023-04-20T18:57:16.784Z,17.74905184415411
2023-04-20T19:01:16.929Z,17.663622000479155
2023-04-20T19:04:17.820Z,17.572411278728396
2023-04-20T19:07:17.272Z,17.508820759362514
2023-04-20T19:11:16.473Z,17.372647271844563
2023-04-20T19:14:16.775Z,17.31355318047581
2023-04-20T19:17:16.734Z,17.246751210493766
2023-04-20T19:21:15.528Z,17.106724163792478
2023-04-20T19:24:16.184Z,17.04056467103219
2023-04-20T19:27:16.489Z,16.96862430647161
2023-04-20T19:31:16.349Z,16.882552873823805
2023-04-20T19:34:18.728Z,16.82281677827059
2023-04-20T19:37:16.814Z,16.751518909258085
2023-04-20T19:41:15.996Z,16.66352071574738
2023-04-20T19:44:17.495Z,16.601857798890798
2023-04-20T19:47:16.334Z,16.527348496938156
2023-04-20T19:51:16.372Z,16.4406351622285
2023-04-20T19:54:18.454Z,16.40145360854449
2023-04-20T19:57:16.161Z,16.320521272541463
2023-04-20T20:01:17.333Z,16.198480584925072
2023-04-20T20:04:17.173Z,16.1310371174608
2023-04-20T20:07:17.742Z,16.09763656166033
2023-04-20T20:11:16.405Z,16.01156595530665
2023-04-20T20:14:17.565Z,15.975596173858866
2023-04-20T20:17:19.124Z,15.877321665110594
2023-04-20T20:21:15.962Z,15.824009394445238
2023-04-20T20:24:16.413Z,15.768770207284252
2023-04-20T20:27:16.190Z,15.703254005647977
2023-04-20T20:31:15.629Z,15.630030071572401
2023-04-20T20:34:16.455Z,15.593418126696724
2023-04-20T20:37:16.580Z,15.524048166397643
2023-04-20T20:41:18.867Z,15.42898571435735
2023-04-20T20:44:17.818Z,15.393658477161079
2023-04-20T20:47:16.503Z,15.335207987645209
2023-04-20T20:51:16.380Z,15.266480537155076
2023-04-20T20:54:16.823Z,15.206745505656091
2023-04-20T20:57:16.795Z,15.166922173174044
2023-04-20T21:01:16.386Z,15.096910227803528
2023-04-20T21:04:16.952Z,15.054517699987628
2023-04-20T21:07:16.790Z,14.98643277252595
2023-04-20T21:11:16.051Z,14.9575288093366
2023-04-20T21:14:16.621Z,14.889443954661782
2023-04-20T21:17:16.423Z,14.789886004432628
2023-04-20T21:21:16.519Z,14.757770559922573
2023-04-20T21:24:16.162Z,14.715378190577031
2023-04-20T21:27:16.088Z,14.655001213887953
2023-04-20T21:31:16.192Z,14.626097356290938
2023-04-20T21:34:16.529Z,14.62481274061147
2023-04-20T21:37:16.549Z,14.543881989475722
2023-04-20T21:41:15.984Z,14.451389790866324
2023-04-20T21:44:16.309Z,14.401289889324925
2023-04-20T21:47:16.259Z,14.375597642856246
2023-04-20T21:51:16.822Z,14.32870931180696
2023-04-20T21:54:16.470Z,14.289528670200616
2023-04-20T21:57:16.380Z,14.257413402814654
2023-04-20T22:01:16.345Z,14.1899713783092
2023-04-20T22:04:17.225Z,14.137302403560899
2023-04-20T22:07:17.600Z,14.041599100875555
2023-04-20T22:11:16.368Z,14.043526012014263
2023-04-20T22:14:16.838Z,14.03902988608761
2023-04-20T22:17:16.498Z,13.917634570296286
2023-04-20T22:21:16.075Z,13.899650092883167
2023-04-20T22:24:16.277Z,13.861754241433754
2023-04-20T22:27:16.315Z,13.852119705453514
2023-04-20T22:31:16.368Z,13.788531793645324
2023-04-20T22:34:16.671Z,13.73586305195504
2023-04-20T22:37:16.758Z,13.695398063866014
2023-04-20T22:41:17.489Z,13.697967268922365
2023-04-20T22:44:16.669Z,13.586206916228184
2023-04-20T22:47:16.863Z,13.582353113418502
2023-04-20T22:51:17.376Z,13.571434006346772
2023-04-20T22:54:16.386Z,13.53996129331681
2023-04-20T22:57:17.926Z,13.537392092735171
2023-04-20T23:01:16.189Z,13.401866865201828
2023-04-20T23:04:16.572Z,13.425631937856087
2023-04-20T23:07:17.889Z,13.340206165184009
2023-04-20T23:11:16.343Z,13.290749175666496
2023-04-20T23:14:16.717Z,13.254138174819037
2023-04-20T23:17:17.089Z,13.254780472952188
2023-04-20T23:21:15.993Z,13.189908384468527
2023-04-20T23:24:16.048Z,13.204681232222356
2023-04-20T23:27:16.087Z,13.152655126901754
2023-04-20T23:31:16.134Z,13.082002439052394
2023-04-20T23:34:16.135Z,13.031260997182471
2023-04-20T23:37:16.441Z,13.009422917012126
2023-04-20T23:41:16.305Z,12.995934693650725
2023-04-20T23:44:16.582Z,12.961250699930043
2023-04-20T23:47:17.639Z,12.910509325599197
2023-04-20T23:51:15.439Z,12.828295513510602
2023-04-20T23:54:15.834Z,12.792969289013945
2023-04-20T23:57:15.910Z,12.790400109587154
